createdAt,value
2022-09-20T00:01:32.586Z,4.97
2022-09-20T00:04:01.463Z,3.83
2022-09-20T00:06:30.718Z,4.73
2022-09-20T00:08:57.963Z,7.37
2022-09-20T00:11:28.523Z,5.90
2022-09-20T00:13:57.908Z,4.17
2022-09-20T00:16:27.627Z,2.30
2022-09-20T00:18:57.161Z,5.53
2022-09-20T00:21:29.222Z,3.00
2022-09-20T00:23:57.542Z,4.30
2022-09-20T00:26:26.873Z,2.23
2022-09-20T00:28:54.515Z,3.57
2022-09-20T00:31:21.373Z,3.33
2022-09-20T00:34:06.904Z,2.53
2022-09-20T00:36:33.738Z,3.00
2022-09-20T00:39:02.182Z,4.17
2022-09-20T00:41:31.377Z,3.97
2022-09-20T00:43:58.158Z,5.53
2022-09-20T00:46:41.639Z,2.87
2022-09-20T00:49:28.931Z,3.57
2022-09-20T00:52:01.553Z,4.50
2022-09-20T00:54:30.430Z,5.53
2022-09-20T00:56:58.063Z,2.43
2022-09-20T00:59:35.883Z,6.63
2022-09-20T01:02:20.311Z,4.67
2022-09-20T01:04:48.628Z,2.40
2022-09-20T01:07:19.167Z,4.20
2022-09-20T01:09:45.829Z,2.90
2022-09-20T01:12:20.446Z,2.40
2022-09-20T01:14:48.585Z,3.30
2022-09-20T01:17:16.049Z,7.83
2022-09-20T01:19:53.980Z,3.50
2022-09-20T01:22:33.335Z,4.03
2022-09-20T01:25:11.598Z,2.27
2022-09-20T01:27:46.705Z,2.50
2022-09-20T01:30:22.116Z,2.40
2022-09-20T01:32:51.724Z,3.17
2022-09-20T01:35:21.397Z,4.20
2022-09-20T01:38:25.678Z,2.20
2022-09-20T01:41:19.691Z,3.73
2022-09-20T01:44:07.136Z,3.53
2022-09-20T01:46:35.860Z,2.83
2022-09-20T01:49:40.078Z,5.57
2022-09-20T01:52:22.347Z,4.77
2022-09-20T01:55:19.809Z,3.10
2022-09-20T01:58:03.321Z,4.77
2022-09-20T02:01:05.427Z,4.87
2022-09-20T02:04:02.987Z,2.17
2022-09-20T02:06:53.935Z,3.03
2022-09-20T02:10:05.684Z,2.20
2022-09-20T02:13:15.830Z,3.17
2022-09-20T02:16:13.424Z,2.80
2022-09-20T02:19:11.846Z,4.87
2022-09-20T02:22:17.499Z,4.40
2022-09-20T02:25:27.283Z,4.07
2022-09-20T02:28:27.676Z,5.60
2022-09-20T02:31:22.122Z,2.93
2022-09-20T02:34:26.418Z,3.53
2022-09-20T02:37:21.232Z,3.87
2022-09-20T02:39:53.884Z,6.27
2022-09-20T02:42:34.945Z,7.13
2022-09-20T02:45:18.644Z,4.97
2022-09-20T02:47:47.087Z,2.77
2022-09-20T02:50:25.769Z,6.33
2022-09-20T02:53:13.671Z,5.17
2022-09-20T02:56:11.449Z,4.10
2022-09-20T02:58:53.332Z,3.40
2022-09-20T03:01:48.320Z,2.90
2022-09-20T03:04:21.395Z,4.97
2022-09-20T03:06:50.999Z,8.70
2022-09-20T03:09:26.667Z,4.60
2022-09-20T03:12:06.909Z,5.27
2022-09-20T03:14:47.940Z,4.10
2022-09-20T03:17:42.517Z,3.07
2022-09-20T03:20:27.926Z,5.13
2022-09-20T03:23:42.516Z,2.20
2022-09-20T03:26:24.250Z,2.20
2022-09-20T03:29:03.507Z,2.40
2022-09-20T03:32:00.626Z,2.30
2022-09-20T03:34:52.929Z,2.67
2022-09-20T03:37:40.765Z,4.10
2022-09-20T03:40:35.457Z,2.83
2022-09-20T03:43:21.604Z,3.33
2022-09-20T03:46:17.535Z,4.97
2022-09-20T03:49:13.473Z,3.87
2022-09-20T03:51:58.154Z,3.20
2022-09-20T03:54:43.602Z,5.50
2022-09-20T03:57:13.142Z,1.90
2022-09-20T04:00:02.931Z,2.77
2022-09-20T04:02:51.248Z,2.37
2022-09-20T04:05:27.057Z,4.50
2022-09-20T04:08:00.874Z,5.10
2022-09-20T04:10:38.055Z,2.40
2022-09-20T04:13:56.016Z,3.13
2022-09-20T04:16:45.705Z,2.90
2022-09-20T04:19:32.734Z,2.57
2022-09-20T04:22:01.762Z,2.53
2022-09-20T04:24:28.817Z,2.57
2022-09-20T04:27:42.140Z,2.10
2022-09-20T04:30:22.478Z,4.20
2022-09-20T04:33:27.399Z,2.03
2022-09-20T04:36:29.223Z,5.43
2022-09-20T04:39:17.399Z,3.03
2022-09-20T04:42:08.621Z,4.93
2022-09-20T04:44:53.555Z,4.73
2022-09-20T04:48:01.753Z,5.53
2022-09-20T04:51:22.571Z,3.10
2022-09-20T04:54:21.537Z,3.10
2022-09-20T04:57:20.657Z,7.60
2022-09-20T05:00:12.214Z,5.13
2022-09-20T05:03:11.131Z,3.73
2022-09-20T05:05:41.184Z,2.10
2022-09-20T05:08:45.273Z,3.60
2022-09-20T05:11:36.740Z,4.37
2022-09-20T05:14:33.170Z,2.93
2022-09-20T05:17:09.187Z,5.47
2022-09-20T05:20:12.015Z,10.63
2022-09-20T05:23:06.510Z,25.53
2022-09-20T05:25:54.841Z,36.07
2022-09-20T05:28:35.070Z,29.53
2022-09-20T05:31:11.836Z,31.97
2022-09-20T05:33:51.136Z,24.67
2022-09-20T05:36:34.437Z,27.77
2022-09-20T05:39:27.916Z,21.37
2022-09-20T05:42:07.233Z,16.00
2022-09-20T05:44:55.150Z,18.83
2022-09-20T05:47:31.585Z,9.53
2022-09-20T05:50:20.770Z,9.93
2022-09-20T05:53:05.472Z,5.60
2022-09-20T05:56:01.184Z,9.07
2022-09-20T05:58:43.566Z,11.03
2022-09-20T06:01:17.876Z,9.70
2022-09-20T06:03:54.444Z,10.30
2022-09-20T06:06:38.585Z,5.73
2022-09-20T06:09:17.349Z,7.00
2022-09-20T06:12:30.747Z,13.97
2022-09-20T06:15:04.774Z,7.60
2022-09-20T06:17:38.679Z,2.93
2022-09-20T06:20:23.575Z,4.93
2022-09-20T06:23:00.181Z,3.43
2022-09-20T06:25:51.046Z,7.53
2022-09-20T06:28:20.840Z,5.13
2022-09-20T06:30:50.123Z,3.63
2022-09-20T06:33:22.604Z,7.00
2022-09-20T06:36:27.756Z,4.00
2022-09-20T06:39:22.142Z,6.20
2022-09-20T06:41:49.624Z,8.00
2022-09-20T06:44:16.301Z,5.93
2022-09-20T06:46:43.135Z,12.73
2022-09-20T06:49:09.961Z,4.77
2022-09-20T06:51:38.673Z,10.13
2022-09-20T06:54:07.522Z,6.83
2022-09-20T06:56:36.705Z,3.87
2022-09-20T06:59:06.097Z,8.77
2022-09-20T07:01:32.933Z,14.80
2022-09-20T07:03:59.748Z,12.67
2022-09-20T07:06:27.408Z,13.70
2022-09-20T07:08:54.078Z,9.87
2022-09-20T07:11:23.135Z,20.37
2022-09-20T07:13:55.050Z,9.20
2022-09-20T07:16:22.372Z,10.17
2022-09-20T07:18:49.419Z,8.80
2022-09-20T07:21:17.716Z,11.60
2022-09-20T07:23:48.627Z,16.33
2022-09-20T07:26:22.790Z,15.33
2022-09-20T07:28:50.540Z,7.80
2022-09-20T07:31:23.087Z,18.30
2022-09-20T07:33:50.214Z,10.13
2022-09-20T07:36:17.331Z,15.07
2022-09-20T07:38:51.018Z,9.97
2022-09-20T07:41:22.893Z,7.50
2022-09-20T07:43:52.520Z,6.80
2022-09-20T07:46:22.233Z,14.70
2022-09-20T07:48:49.162Z,6.77
2022-09-20T07:51:15.985Z,6.77
2022-09-20T07:53:42.790Z,7.73
2022-09-20T07:56:16.699Z,12.07
2022-09-20T07:58:48.707Z,9.00
2022-09-20T08:01:20.963Z,13.07
2022-09-20T08:03:48.216Z,16.10
2022-09-20T08:06:16.468Z,9.27
2022-09-20T08:08:43.475Z,8.60
2022-09-20T08:11:27.731Z,5.90
2022-09-20T08:14:11.536Z,7.30
2022-09-20T08:16:41.162Z,15.57
2022-09-20T08:19:08.129Z,9.00
2022-09-20T08:21:38.000Z,14.50
2022-09-20T08:24:04.789Z,8.50
2022-09-20T08:26:31.795Z,11.53
2022-09-20T08:29:00.290Z,10.13
2022-09-20T08:31:31.535Z,6.17
2022-09-20T08:33:59.180Z,8.87
2022-09-20T08:36:26.587Z,9.10
2022-09-20T08:41:47.504Z,13.10
2022-09-20T08:44:27.255Z,11.80
2022-09-20T08:47:10.000Z,10.73
2022-09-20T08:49:38.057Z,10.57
2022-09-20T08:52:10.327Z,5.37
2022-09-20T08:54:37.413Z,10.80
2022-09-20T08:57:11.070Z,7.97
2022-09-20T08:59:37.939Z,13.77
2022-09-20T09:02:19.716Z,12.43
2022-09-20T09:04:46.829Z,5.17
2022-09-20T09:07:16.027Z,4.90
2022-09-20T09:09:44.779Z,6.40
2022-09-20T09:12:27.057Z,8.37
2022-09-20T09:14:59.661Z,11.90
2022-09-20T09:17:28.870Z,7.67
2022-09-20T09:19:57.106Z,14.50
2022-09-20T09:22:40.271Z,9.97
2022-09-20T09:25:07.018Z,7.33
2022-09-20T09:27:35.164Z,10.20
2022-09-20T09:30:01.909Z,6.60
2022-09-20T09:32:33.001Z,12.97
2022-09-20T09:35:22.894Z,8.13
2022-09-20T09:38:21.547Z,8.43
2022-09-20T09:41:00.553Z,9.60
2022-09-20T09:43:33.084Z,8.27
2022-09-20T09:46:21.355Z,8.00
2022-09-20T09:49:12.269Z,7.77
2022-09-20T09:51:43.175Z,13.50
2022-09-20T09:54:18.154Z,5.17
2022-09-20T09:57:16.346Z,11.00
2022-09-20T10:00:12.681Z,7.87
2022-09-20T10:03:09.082Z,7.43
2022-09-20T10:06:10.847Z,8.67
2022-09-20T10:08:52.378Z,10.27
2022-09-20T10:11:25.068Z,11.37
2022-09-20T10:14:17.146Z,18.07
2022-09-20T10:17:25.153Z,10.30
2022-09-20T10:20:31.141Z,8.33
2022-09-20T10:24:03.102Z,9.43
2022-09-20T10:26:39.208Z,9.57
2022-09-20T10:29:26.208Z,8.40
2022-09-20T10:32:13.839Z,11.53
2022-09-20T10:34:56.384Z,11.40
2022-09-20T10:38:00.885Z,9.67
2022-09-20T10:40:55.244Z,9.43
2022-09-20T10:43:40.268Z,7.67
2022-09-20T10:46:38.258Z,3.70
2022-09-20T10:49:28.959Z,5.57
2022-09-20T10:52:01.590Z,8.70
2022-09-20T10:55:04.620Z,4.17
2022-09-20T10:57:49.839Z,6.70
2022-09-20T11:00:42.226Z,6.87
2022-09-20T11:03:22.470Z,7.27
2022-09-20T11:06:03.366Z,5.90
2022-09-20T11:08:37.807Z,13.47
2022-09-20T11:11:14.530Z,6.50
2022-09-20T11:13:48.586Z,4.07
2022-09-20T11:16:24.903Z,7.53
2022-09-20T11:19:05.070Z,5.93
2022-09-20T11:21:38.886Z,8.17
2022-09-20T11:24:15.572Z,4.10
2022-09-20T11:26:48.128Z,7.20
2022-09-20T11:29:22.711Z,5.80
2022-09-20T11:31:55.148Z,7.03
2022-09-20T11:34:28.291Z,8.93
2022-09-20T11:37:02.652Z,6.33
2022-09-20T11:39:35.237Z,7.73
2022-09-20T11:42:05.229Z,5.10
2022-09-20T11:44:32.970Z,4.47
2022-09-20T11:47:53.382Z,9.97
2022-09-20T11:50:45.788Z,4.83
2022-09-20T11:53:42.259Z,8.63
2022-09-20T11:56:08.967Z,3.27
2022-09-20T11:58:55.227Z,6.20
2022-09-20T12:01:32.401Z,4.77
2022-09-20T12:07:24.543Z,8.80
2022-09-20T12:10:00.832Z,7.50
2022-09-20T12:12:47.892Z,4.57
2022-09-20T12:15:34.571Z,4.97
2022-09-20T12:18:09.348Z,5.50
2022-09-20T12:20:36.361Z,6.63
2022-09-20T12:23:43.354Z,6.27
2022-09-20T12:26:20.344Z,8.03
2022-09-20T12:28:54.426Z,3.67
2022-09-20T12:31:26.231Z,5.50
2022-09-20T12:34:02.289Z,9.77
2022-09-20T12:36:36.199Z,8.10
2022-09-20T12:39:12.167Z,5.10
2022-09-20T12:41:51.449Z,5.83
2022-09-20T12:44:27.155Z,2.50
2022-09-20T12:46:59.622Z,5.10
2022-09-20T12:49:47.956Z,6.27
2022-09-20T12:52:44.404Z,4.33
2022-09-20T12:55:26.005Z,3.70
2022-09-20T12:57:58.034Z,3.87
2022-09-20T13:00:38.156Z,7.37
2022-09-20T13:03:23.868Z,2.40
2022-09-20T13:06:12.044Z,5.90
2022-09-20T13:09:09.759Z,4.80
2022-09-20T13:11:52.538Z,3.37
2022-09-20T13:14:31.357Z,1.83
2022-09-20T13:17:10.157Z,4.73
2022-09-20T13:19:44.122Z,2.80
2022-09-20T13:22:30.283Z,1.70
2022-09-20T13:25:00.892Z,3.47
2022-09-20T13:27:30.107Z,4.73
2022-09-20T13:30:10.050Z,5.77
2022-09-20T13:32:41.619Z,6.00
2022-09-20T13:35:13.815Z,4.63
2022-09-20T13:37:47.058Z,3.07
2022-09-20T13:40:33.257Z,3.47
2022-09-20T13:43:24.215Z,4.33
2022-09-20T13:46:16.422Z,1.73
2022-09-20T13:48:46.174Z,2.87
2022-09-20T13:51:27.114Z,1.93
2022-09-20T13:53:54.498Z,0.90
2022-09-20T13:56:28.788Z,4.73
2022-09-20T13:58:58.965Z,4.07
2022-09-20T14:01:30.410Z,5.77
2022-09-20T14:04:06.985Z,4.53
2022-09-20T14:06:34.946Z,2.93
2022-09-20T14:09:08.353Z,1.87
2022-09-20T14:11:37.740Z,2.17
2022-09-20T14:14:07.732Z,3.13
2022-09-20T14:16:45.204Z,2.30
2022-09-20T14:19:15.727Z,1.67
2022-09-20T14:21:43.630Z,1.50
2022-09-20T14:24:13.297Z,2.47
2022-09-20T14:26:42.375Z,4.87
2022-09-20T14:29:33.854Z,1.97
2022-09-20T14:32:06.409Z,3.70
2022-09-20T14:34:37.780Z,2.00
2022-09-20T14:37:16.685Z,4.83
2022-09-20T14:39:49.811Z,2.27
2022-09-20T14:42:41.292Z,1.10
2022-09-20T14:45:20.664Z,1.23
2022-09-20T14:48:11.435Z,5.37
2022-09-20T14:50:40.596Z,3.03
2022-09-20T14:53:10.840Z,3.00
2022-09-20T14:55:39.676Z,2.97
2022-09-20T14:58:15.114Z,1.47
2022-09-20T15:00:57.940Z,1.17
2022-09-20T15:03:28.520Z,2.40
2022-09-20T15:05:55.632Z,2.00
2022-09-20T15:08:23.457Z,0.47
2022-09-20T15:10:50.318Z,3.47
2022-09-20T15:13:17.668Z,4.37
2022-09-20T15:15:44.496Z,2.27
2022-09-20T15:18:26.668Z,3.73
2022-09-20T15:20:54.636Z,3.97
2022-09-20T15:23:21.885Z,4.33
2022-09-20T15:25:53.390Z,3.77
2022-09-20T15:28:21.213Z,2.67
2022-09-20T15:30:52.768Z,1.27
2022-09-20T15:33:21.353Z,1.07
2022-09-20T15:35:48.530Z,2.93
2022-09-20T15:38:18.286Z,0.93
2022-09-20T15:40:47.881Z,2.10
2022-09-20T15:43:23.869Z,1.97
2022-09-20T15:45:53.567Z,1.03
2022-09-20T15:48:23.348Z,3.47
2022-09-20T15:51:03.199Z,2.00
2022-09-20T15:53:35.731Z,0.60
2022-09-20T15:56:24.365Z,1.83
2022-09-20T15:58:58.963Z,1.43
2022-09-20T16:01:32.373Z,2.20
2022-09-20T16:03:59.925Z,4.23
2022-09-20T16:06:26.748Z,1.40
2022-09-20T16:08:53.425Z,4.43
2022-09-20T16:11:22.970Z,1.50
2022-09-20T16:13:57.570Z,3.53
2022-09-20T16:16:26.053Z,2.60
2022-09-20T16:19:11.600Z,3.07
2022-09-20T16:21:44.043Z,3.80
2022-09-20T16:24:12.551Z,1.73
2022-09-20T16:26:40.259Z,0.80
2022-09-20T16:29:07.595Z,10.97
2022-09-20T16:31:39.476Z,7.17
2022-09-20T16:34:21.311Z,1.43
2022-09-20T16:36:56.838Z,2.00
2022-09-20T16:39:27.682Z,3.50
2022-09-20T16:42:05.887Z,10.10
2022-09-20T16:44:36.534Z,5.00
2022-09-20T16:47:08.021Z,5.30
2022-09-20T16:49:36.303Z,2.03
2022-09-20T16:52:07.909Z,1.80
2022-09-20T16:54:34.699Z,2.70
2022-09-20T16:57:01.958Z,1.57
2022-09-20T16:59:28.884Z,1.97
2022-09-20T17:01:55.758Z,1.57
2022-09-20T17:04:23.200Z,4.67
2022-09-20T17:06:50.883Z,2.10
2022-09-20T17:09:17.615Z,1.90
2022-09-20T17:11:50.390Z,5.07
2022-09-20T17:14:21.044Z,2.17
2022-09-20T17:16:48.407Z,4.83
2022-09-20T17:19:18.607Z,3.03
2022-09-20T17:21:49.348Z,1.60
2022-09-20T17:24:17.562Z,2.30
2022-09-20T17:26:45.441Z,2.90
2022-09-20T17:29:17.038Z,1.47
2022-09-20T17:31:51.476Z,2.73
2022-09-20T17:34:22.096Z,2.73
2022-09-20T17:36:54.187Z,2.33
2022-09-20T17:39:20.846Z,4.37
2022-09-20T17:41:49.426Z,3.13
2022-09-20T17:44:17.128Z,2.43
2022-09-20T17:46:46.248Z,3.57
2022-09-20T17:49:15.870Z,4.23
2022-09-20T17:51:45.834Z,2.17
2022-09-20T17:54:14.259Z,1.73
2022-09-20T17:56:47.134Z,5.03
2022-09-20T17:59:16.185Z,2.80
2022-09-20T18:01:44.824Z,4.17
2022-09-20T18:04:11.895Z,7.27
2022-09-20T18:06:49.956Z,4.30
2022-09-20T18:09:19.683Z,4.33
2022-09-20T18:11:50.023Z,2.47
2022-09-20T18:14:28.073Z,2.50
2022-09-20T18:16:58.202Z,3.33
2022-09-20T18:19:32.294Z,2.43
2022-09-20T18:21:59.996Z,2.50
2022-09-20T18:24:26.611Z,5.10
2022-09-20T18:26:53.429Z,5.00
2022-09-20T18:29:20.293Z,4.43
2022-09-20T18:31:54.395Z,4.53
2022-09-20T18:34:22.976Z,4.30
2022-09-20T18:36:55.716Z,5.87
2022-09-20T18:39:28.095Z,3.47
2022-09-20T18:41:55.150Z,4.93
2022-09-20T18:44:23.023Z,6.53
2022-09-20T18:46:55.056Z,3.83
2022-09-20T18:49:22.231Z,5.47
2022-09-20T18:51:49.690Z,3.93
2022-09-20T18:54:17.709Z,7.63
2022-09-20T18:56:46.314Z,3.13
2022-09-20T18:59:22.201Z,5.37
2022-09-20T19:01:58.200Z,5.20
2022-09-20T19:04:59.682Z,13.70
2022-09-20T19:07:38.418Z,10.50
2022-09-20T19:10:26.656Z,15.10
2022-09-20T19:13:05.504Z,11.47
2022-09-20T19:16:19.350Z,8.73
2022-09-20T19:19:08.056Z,7.17
2022-09-20T19:21:34.938Z,5.00
2022-09-20T19:24:10.054Z,3.07
2022-09-20T19:26:38.663Z,3.77
2022-09-20T19:29:22.845Z,9.67
2022-09-20T19:31:53.583Z,6.50
2022-09-20T19:34:23.713Z,5.33
2022-09-20T19:37:12.360Z,3.53
2022-09-20T19:40:11.294Z,2.80
2022-09-20T19:42:55.160Z,4.70
2022-09-20T19:45:44.654Z,3.13
2022-09-20T19:48:22.122Z,2.57
2022-09-20T19:50:52.571Z,5.07
2022-09-20T19:53:22.322Z,4.80
2022-09-20T19:56:25.377Z,8.10
2022-09-20T19:58:55.051Z,3.67
2022-09-20T20:01:25.908Z,4.10
2022-09-20T20:03:54.401Z,4.10
2022-09-20T20:06:37.012Z,5.07
2022-09-20T20:09:21.901Z,2.70
2022-09-20T20:12:03.048Z,2.13
2022-09-20T20:15:07.497Z,4.80
2022-09-20T20:18:04.727Z,3.00
2022-09-20T20:20:50.587Z,4.57
2022-09-20T20:23:41.988Z,5.07
2022-09-20T20:26:10.090Z,1.93
2022-09-20T20:28:38.455Z,5.00
2022-09-20T20:31:06.379Z,5.73
2022-09-20T20:33:33.591Z,3.60
2022-09-20T20:36:01.549Z,4.13
2022-09-20T20:38:30.114Z,2.30
2022-09-20T20:41:05.809Z,2.03
2022-09-20T20:43:38.180Z,2.97
2022-09-20T20:46:06.958Z,3.37
2022-09-20T20:48:33.751Z,3.30
2022-09-20T20:51:11.721Z,3.37
2022-09-20T20:53:47.657Z,6.23
2022-09-20T20:56:18.759Z,7.93
2022-09-20T20:58:46.967Z,5.00
2022-09-20T21:01:18.067Z,7.57
2022-09-20T21:03:53.476Z,4.30
2022-09-20T21:06:23.404Z,4.73
2022-09-20T21:08:50.190Z,2.70
2022-09-20T21:11:23.627Z,5.53
2022-09-20T21:13:51.159Z,5.10
2022-09-20T21:16:21.104Z,3.10
2022-09-20T21:18:48.841Z,5.00
2022-09-20T21:21:33.308Z,2.73
2022-09-20T21:24:02.517Z,3.73
2022-09-20T21:26:33.895Z,2.57
2022-09-20T21:29:02.684Z,2.50
2022-09-20T21:31:31.925Z,3.47
2022-09-20T21:33:58.920Z,4.20
2022-09-20T21:36:28.333Z,3.80
2022-09-20T21:38:56.011Z,4.73
2022-09-20T21:41:25.461Z,4.60
2022-09-20T21:43:55.216Z,5.40
2022-09-20T21:46:26.324Z,3.83
2022-09-20T21:48:53.372Z,3.47
2022-09-20T21:51:21.185Z,2.73
2022-09-20T21:53:49.879Z,2.50
2022-09-20T21:56:17.675Z,3.53
2022-09-20T21:58:46.028Z,5.80
2022-09-20T22:01:14.320Z,6.80
2022-09-20T22:03:49.208Z,2.67
2022-09-20T22:06:18.351Z,2.90
2022-09-20T22:08:51.643Z,2.40
2022-09-20T22:11:20.806Z,5.80
2022-09-20T22:13:49.745Z,2.33
2022-09-20T22:16:19.071Z,2.83
2022-09-20T22:18:46.898Z,4.50
2022-09-20T22:21:16.517Z,3.37
2022-09-20T22:23:43.776Z,2.37
2022-09-20T22:26:13.852Z,3.17
2022-09-20T22:28:41.390Z,3.03
2022-09-20T22:31:11.670Z,2.43
2022-09-20T22:33:44.039Z,2.30
2022-09-20T22:36:14.050Z,5.67
2022-09-20T22:38:41.878Z,2.40
2022-09-20T22:41:09.232Z,2.60
2022-09-20T22:43:36.714Z,2.60
2022-09-20T22:46:05.845Z,3.70
2022-09-20T22:48:33.829Z,2.03
2022-09-20T22:51:01.692Z,2.23
2022-09-20T22:53:31.277Z,2.10
2022-09-20T22:56:08.811Z,4.37
2022-09-20T22:58:41.755Z,1.73
2022-09-20T23:01:10.621Z,2.00
2022-09-20T23:03:39.400Z,2.47
2022-09-20T23:06:23.119Z,12.10
2022-09-20T23:08:51.876Z,3.07
2022-09-20T23:11:19.712Z,5.93
2022-09-20T23:13:46.903Z,5.00
2022-09-20T23:16:19.428Z,2.63
2022-09-20T23:18:47.012Z,2.43
2022-09-20T23:21:14.365Z,3.17
2022-09-20T23:23:43.438Z,1.80
2022-09-20T23:26:18.094Z,4.97
2022-09-20T23:28:48.026Z,2.03
2022-09-20T23:31:16.660Z,2.93
2022-09-20T23:33:51.707Z,2.73
2022-09-20T23:36:19.699Z,2.37
2022-09-20T23:38:47.647Z,3.63
2022-09-20T23:41:17.076Z,3.37
2022-09-20T23:43:44.339Z,1.70
2022-09-20T23:46:12.478Z,3.53
2022-09-20T23:48:41.721Z,3.67
2022-09-20T23:51:12.262Z,2.53
2022-09-20T23:53:39.435Z,2.43
2022-09-20T23:56:07.344Z,2.17
2022-09-20T23:58:36.484Z,3.67
